createdAt,value
2023-02-23T00:00:29.349Z,89.64
2023-02-23T00:02:59.060Z,89.62
2023-02-23T00:05:27.954Z,90.00
2023-02-23T00:07:55.750Z,89.70
2023-02-23T00:10:30.494Z,89.36
2023-02-23T00:13:00.000Z,89.80
2023-02-23T00:15:29.734Z,89.30
2023-02-23T00:17:58.854Z,90.09
2023-02-23T00:20:28.240Z,90.73
2023-02-23T00:22:58.138Z,90.38
2023-02-23T00:25:28.934Z,90.63
2023-02-23T00:27:56.897Z,90.41
2023-02-23T00:30:26.431Z,90.42
2023-02-23T00:32:54.068Z,90.53
2023-02-23T00:35:32.380Z,90.89
2023-02-23T00:38:02.039Z,90.30
2023-02-23T00:40:30.862Z,91.05
2023-02-23T00:43:00.284Z,90.91
2023-02-23T00:45:30.456Z,91.49
2023-02-23T00:48:05.636Z,90.56
2023-02-23T00:50:34.780Z,90.69
2023-02-23T00:53:02.625Z,91.19
2023-02-23T00:55:32.246Z,91.77
2023-02-23T00:57:59.783Z,92.60
2023-02-23T01:00:34.047Z,92.45
2023-02-23T01:03:01.910Z,93.10
2023-02-23T01:05:29.777Z,93.49
2023-02-23T01:07:57.480Z,93.52
2023-02-23T01:10:25.093Z,93.42
2023-02-23T01:12:53.776Z,93.40
2023-02-23T01:15:22.087Z,93.75
2023-02-23T01:17:51.326Z,93.13
2023-02-23T01:20:20.110Z,93.20
2023-02-23T01:22:50.050Z,93.17
2023-02-23T01:25:18.684Z,92.88
2023-02-23T01:27:47.204Z,93.54
2023-02-23T01:30:19.216Z,93.61
2023-02-23T01:32:46.884Z,93.78
2023-02-23T01:35:16.160Z,93.58
2023-02-23T01:37:45.461Z,93.66
2023-02-23T01:40:18.313Z,93.57
2023-02-23T01:42:47.923Z,93.09
2023-02-23T01:45:31.360Z,93.35
2023-02-23T01:48:03.016Z,93.30
2023-02-23T01:50:38.703Z,94.26
2023-02-23T01:53:06.865Z,95.33
2023-02-23T01:55:35.177Z,95.63
2023-02-23T01:58:15.228Z,96.64
2023-02-23T02:00:47.559Z,98.78
2023-02-23T02:03:29.840Z,99.51
2023-02-23T02:06:01.744Z,100.00
2023-02-23T02:08:32.543Z,100.00
2023-02-23T02:11:01.004Z,100.00
2023-02-23T02:13:32.252Z,100.00
2023-02-23T02:16:28.911Z,100.00
2023-02-23T02:19:20.993Z,100.00
2023-02-23T02:22:29.210Z,100.00
2023-02-23T02:25:43.516Z,100.00
2023-02-23T02:28:47.306Z,100.00
2023-02-23T02:31:46.758Z,100.00
2023-02-23T02:34:46.977Z,100.00
2023-02-23T02:37:36.322Z,100.00
2023-02-23T02:40:16.586Z,100.00
2023-02-23T02:43:00.137Z,100.00
2023-02-23T02:45:35.688Z,100.00
2023-02-23T02:48:11.991Z,100.00
2023-02-23T02:50:48.179Z,100.00
2023-02-23T02:53:24.690Z,100.00
2023-02-23T02:55:58.211Z,100.00
2023-02-23T02:58:27.460Z,100.00
2023-02-23T03:01:12.737Z,100.00
2023-02-23T03:04:02.082Z,100.00
2023-02-23T03:06:51.208Z,100.00
2023-02-23T03:09:49.909Z,100.00
2023-02-23T03:12:45.486Z,100.00
2023-02-23T03:15:44.438Z,100.00
2023-02-23T03:18:43.793Z,100.00
2023-02-23T03:21:37.587Z,100.00
2023-02-23T03:24:30.278Z,100.00
2023-02-23T03:27:23.530Z,100.00
2023-02-23T03:30:16.217Z,100.00
2023-02-23T03:33:06.930Z,100.00
2023-02-23T03:35:58.896Z,100.00
2023-02-23T03:38:52.040Z,100.00
2023-02-23T03:41:40.662Z,100.00
2023-02-23T03:44:33.953Z,100.00
2023-02-23T03:47:21.751Z,100.00
2023-02-23T03:50:08.770Z,100.00
2023-02-23T03:53:00.204Z,100.00
2023-02-23T03:55:52.063Z,100.00
2023-02-23T03:58:43.684Z,100.00
2023-02-23T04:01:35.685Z,100.00
2023-02-23T04:04:25.661Z,100.00
2023-02-23T04:07:13.632Z,100.00
2023-02-23T04:09:59.019Z,100.00
2023-02-23T04:12:54.950Z,100.00
2023-02-23T04:15:27.568Z,100.00
2023-02-23T04:17:57.872Z,100.00
2023-02-23T04:23:09.651Z,100.00
2023-02-23T04:25:37.320Z,100.00
2023-02-23T04:28:07.243Z,100.00
2023-02-23T04:30:55.756Z,100.00
2023-02-23T04:33:30.900Z,100.00
2023-02-23T04:36:00.626Z,100.00
2023-02-23T04:38:30.309Z,100.00
2023-02-23T04:40:58.924Z,100.00
2023-02-23T04:43:31.508Z,100.00
2023-02-23T04:45:59.146Z,100.00
2023-02-23T04:48:28.281Z,100.00
2023-02-23T04:50:58.624Z,100.00
2023-02-23T04:53:27.954Z,100.00
2023-02-23T04:55:57.935Z,100.00
2023-02-23T04:58:30.698Z,100.00
2023-02-23T05:01:05.634Z,100.00
2023-02-23T05:03:42.541Z,100.00
2023-02-23T05:06:12.697Z,100.00
2023-02-23T05:08:43.211Z,100.00
2023-02-23T05:11:12.815Z,100.00
2023-02-23T05:13:40.700Z,100.00
2023-02-23T05:16:19.018Z,100.00
2023-02-23T05:19:01.230Z,100.00
2023-02-23T05:21:29.135Z,100.00
2023-02-23T05:24:03.104Z,100.00
2023-02-23T05:26:30.712Z,100.00
2023-02-23T05:29:06.054Z,100.00
2023-02-23T05:31:35.662Z,100.00
2023-02-23T05:34:05.397Z,100.00
2023-02-23T05:36:46.882Z,100.00
2023-02-23T05:39:14.512Z,100.00
2023-02-23T05:41:42.050Z,100.00
2023-02-23T05:47:01.208Z,100.00
2023-02-23T05:49:47.080Z,100.00
2023-02-23T05:52:15.138Z,100.00
2023-02-23T05:54:58.785Z,100.00
2023-02-23T05:57:27.455Z,100.00
2023-02-23T05:59:55.630Z,100.00
2023-02-23T06:02:29.580Z,100.00
2023-02-23T06:05:03.806Z,100.00
2023-02-23T06:07:32.027Z,100.00
2023-02-23T06:12:47.294Z,100.00
2023-02-23T06:15:14.907Z,100.00
2023-02-23T06:17:43.280Z,100.00
2023-02-23T06:20:22.970Z,100.00
2023-02-23T06:22:50.992Z,100.00
2023-02-23T06:25:18.993Z,100.00
2023-02-23T06:27:46.538Z,100.00
2023-02-23T06:30:18.713Z,100.00
2023-02-23T06:32:47.570Z,100.00
2023-02-23T06:35:17.461Z,100.00
2023-02-23T06:37:46.362Z,100.00
2023-02-23T06:40:14.169Z,100.00
2023-02-23T06:42:41.936Z,100.00
2023-02-23T06:45:11.023Z,100.00
2023-02-23T06:47:42.141Z,100.00
2023-02-23T06:50:11.452Z,100.00
2023-02-23T06:52:39.388Z,100.00
2023-02-23T06:55:10.179Z,100.00
2023-02-23T06:57:38.297Z,100.00
2023-02-23T07:00:06.916Z,100.00
2023-02-23T07:02:37.443Z,100.00
2023-02-23T07:05:06.086Z,100.00
2023-02-23T07:07:33.873Z,100.00
2023-02-23T07:10:01.624Z,100.00
2023-02-23T07:12:31.463Z,100.00
2023-02-23T07:14:59.072Z,100.00
2023-02-23T07:17:26.856Z,100.00
2023-02-23T07:19:54.616Z,100.00
2023-02-23T07:22:27.138Z,100.00
2023-02-23T07:24:54.755Z,100.00
2023-02-23T07:27:23.443Z,100.00
2023-02-23T07:29:52.495Z,100.00
2023-02-23T07:32:20.227Z,100.00
2023-02-23T07:34:48.183Z,100.00
2023-02-23T07:37:19.455Z,100.00
2023-02-23T07:39:47.834Z,100.00
2023-02-23T07:42:15.512Z,100.00
2023-02-23T07:44:43.641Z,100.00
2023-02-23T07:47:13.305Z,100.00
2023-02-23T07:49:41.462Z,100.00
2023-02-23T07:52:21.682Z,100.00
2023-02-23T07:54:49.318Z,100.00
2023-02-23T07:57:16.887Z,100.00
2023-02-23T07:59:44.556Z,100.00
2023-02-23T08:02:18.864Z,100.00
2023-02-23T08:04:48.965Z,100.00
2023-02-23T08:07:16.496Z,100.00
2023-02-23T08:09:45.218Z,100.00
2023-02-23T08:12:25.434Z,100.00
2023-02-23T08:14:53.847Z,100.00
2023-02-23T08:17:23.934Z,100.00
2023-02-23T08:19:51.532Z,100.00
2023-02-23T08:22:19.324Z,100.00
2023-02-23T08:24:47.001Z,100.00
2023-02-23T08:27:14.992Z,100.00
2023-02-23T08:29:42.616Z,100.00
2023-02-23T08:32:10.765Z,100.00
2023-02-23T08:34:41.562Z,100.00
2023-02-23T08:37:09.221Z,100.00
2023-02-23T08:39:37.371Z,100.00
2023-02-23T08:42:05.597Z,100.00
2023-02-23T08:44:33.437Z,100.00
2023-02-23T08:47:01.153Z,100.00
2023-02-23T08:49:28.935Z,100.00
2023-02-23T08:51:57.953Z,100.00
2023-02-23T08:54:25.506Z,100.00
2023-02-23T08:56:59.366Z,100.00
2023-02-23T08:59:28.060Z,100.00
2023-02-23T09:01:55.667Z,100.00
2023-02-23T09:04:23.884Z,100.00
2023-02-23T09:06:51.655Z,100.00
2023-02-23T09:09:20.613Z,100.00
2023-02-23T09:11:52.617Z,100.00
2023-02-23T09:14:21.092Z,100.00
2023-02-23T09:16:52.240Z,100.00
2023-02-23T09:19:20.086Z,100.00
2023-02-23T09:21:47.639Z,100.00
2023-02-23T09:24:17.186Z,100.00
2023-02-23T09:26:46.092Z,100.00
2023-02-23T09:29:13.682Z,100.00
2023-02-23T09:31:46.424Z,100.00
2023-02-23T09:34:21.677Z,100.00
2023-02-23T09:36:49.253Z,98.69
2023-02-23T09:39:19.024Z,99.30
2023-02-23T09:42:21.013Z,99.13
2023-02-23T09:45:01.810Z,99.47
2023-02-23T09:47:38.160Z,98.69
2023-02-23T09:50:16.385Z,97.72
2023-02-23T09:52:48.445Z,98.56
2023-02-23T09:55:17.133Z,99.68
2023-02-23T09:57:49.437Z,100.00
2023-02-23T10:00:24.072Z,99.67
2023-02-23T10:03:07.378Z,98.97
2023-02-23T10:05:43.843Z,97.39
2023-02-23T10:08:43.461Z,97.82
2023-02-23T10:11:24.594Z,97.88
2023-02-23T10:14:02.901Z,96.83
2023-02-23T10:16:42.673Z,95.46
2023-02-23T10:19:20.363Z,94.98
2023-02-23T10:21:55.371Z,94.67
2023-02-23T10:24:28.616Z,92.86
2023-02-23T10:27:01.433Z,91.14
2023-02-23T10:29:36.185Z,88.96
2023-02-23T10:32:13.604Z,87.67
2023-02-23T10:34:42.286Z,88.97
2023-02-23T10:37:13.424Z,89.06
2023-02-23T10:39:42.125Z,88.05
2023-02-23T10:42:15.522Z,87.21
2023-02-23T10:44:46.486Z,87.82
2023-02-23T10:47:17.179Z,86.83
2023-02-23T10:49:48.885Z,86.67
2023-02-23T10:52:26.384Z,87.18
2023-02-23T10:54:54.312Z,87.54
2023-02-23T10:57:26.615Z,86.20
2023-02-23T11:00:17.021Z,85.08
2023-02-23T11:02:47.776Z,85.37
2023-02-23T11:05:33.913Z,85.75
2023-02-23T11:08:27.276Z,86.33
2023-02-23T11:11:08.513Z,84.76
2023-02-23T11:13:41.718Z,86.98
2023-02-23T11:16:14.112Z,85.83
2023-02-23T11:18:45.998Z,86.00
2023-02-23T11:21:19.871Z,84.83
2023-02-23T11:23:51.681Z,83.72
2023-02-23T11:26:29.694Z,83.69
2023-02-23T11:29:03.971Z,82.60
2023-02-23T11:31:35.862Z,81.88
2023-02-23T11:34:05.579Z,82.21
2023-02-23T11:36:36.000Z,82.42
2023-02-23T11:39:15.670Z,82.81
2023-02-23T11:41:43.705Z,83.12
2023-02-23T11:44:21.113Z,82.50
2023-02-23T11:46:52.544Z,80.89
2023-02-23T11:49:27.710Z,79.20
2023-02-23T11:51:56.298Z,77.05
2023-02-23T11:54:29.701Z,75.75
2023-02-23T11:56:58.815Z,75.35
2023-02-23T11:59:30.934Z,72.32
2023-02-23T12:02:07.463Z,71.37
2023-02-23T12:04:42.865Z,71.82
2023-02-23T12:07:42.462Z,69.98
2023-02-23T12:10:17.644Z,69.37
2023-02-23T12:12:52.691Z,69.49
2023-02-23T12:15:30.275Z,68.66
2023-02-23T12:18:06.936Z,67.94
2023-02-23T12:20:40.906Z,67.70
2023-02-23T12:23:16.730Z,67.35
2023-02-23T12:25:48.742Z,67.25
2023-02-23T12:28:26.035Z,67.86
2023-02-23T12:30:58.588Z,69.58
2023-02-23T12:33:35.838Z,71.25
2023-02-23T12:36:18.550Z,70.71
2023-02-23T12:38:53.924Z,72.10
2023-02-23T12:41:33.371Z,73.09
2023-02-23T12:44:07.530Z,72.69
2023-02-23T12:46:40.493Z,72.96
2023-02-23T12:49:18.698Z,73.34
2023-02-23T12:51:57.471Z,73.57
2023-02-23T12:54:25.547Z,74.29
2023-02-23T12:57:08.153Z,74.54
2023-02-23T13:00:09.942Z,74.35
2023-02-23T13:02:47.606Z,73.72
2023-02-23T13:05:24.411Z,74.16
2023-02-23T13:08:12.929Z,74.86
2023-02-23T13:10:51.503Z,74.25
2023-02-23T13:13:30.432Z,75.30
2023-02-23T13:16:03.677Z,74.59
2023-02-23T13:18:46.161Z,75.49
2023-02-23T13:21:22.483Z,75.47
2023-02-23T13:23:59.836Z,75.75
2023-02-23T13:26:34.931Z,75.61
2023-02-23T13:29:08.402Z,74.29
2023-02-23T13:31:37.918Z,74.43
2023-02-23T13:34:08.445Z,74.87
2023-02-23T13:36:40.621Z,73.98
2023-02-23T13:39:37.340Z,73.21
2023-02-23T13:42:16.434Z,72.97
2023-02-23T13:44:52.640Z,73.07
2023-02-23T13:47:38.350Z,73.24
2023-02-23T13:50:16.282Z,73.33
2023-02-23T13:52:49.558Z,73.72
2023-02-23T13:55:48.611Z,73.46
2023-02-23T13:58:20.945Z,72.13
2023-02-23T14:00:55.838Z,71.19
2023-02-23T14:03:28.180Z,70.94
2023-02-23T14:06:00.507Z,70.39
2023-02-23T14:08:35.130Z,69.82
2023-02-23T14:11:08.456Z,70.86
2023-02-23T14:13:41.916Z,70.18
2023-02-23T14:16:14.917Z,69.94
2023-02-23T14:19:36.169Z,69.24
2023-02-23T14:22:10.733Z,68.82
2023-02-23T14:24:40.266Z,68.12
2023-02-23T14:27:41.753Z,68.52
2023-02-23T14:30:22.753Z,67.68
2023-02-23T14:32:53.551Z,67.38
2023-02-23T14:35:46.835Z,67.53
2023-02-23T14:38:45.681Z,67.83
2023-02-23T14:41:22.392Z,68.05
2023-02-23T14:43:55.330Z,67.59
2023-02-23T14:46:26.156Z,67.43
2023-02-23T14:49:00.251Z,67.52
2023-02-23T14:51:46.963Z,67.55
2023-02-23T14:54:24.411Z,68.27
2023-02-23T14:56:56.999Z,68.37
2023-02-23T14:59:28.033Z,68.88
2023-02-23T15:01:56.971Z,69.80
2023-02-23T15:04:27.355Z,70.33
2023-02-23T15:07:01.447Z,70.57
2023-02-23T15:09:35.224Z,70.52
2023-02-23T15:12:23.269Z,70.76
2023-02-23T15:14:51.616Z,70.74
2023-02-23T15:17:24.504Z,69.83
2023-02-23T15:20:14.299Z,70.23
2023-02-23T15:22:44.526Z,70.80
2023-02-23T15:25:17.104Z,69.88
2023-02-23T15:27:47.695Z,69.52
2023-02-23T15:30:30.944Z,70.10
2023-02-23T15:33:06.648Z,69.86
2023-02-23T15:35:45.215Z,69.97
2023-02-23T15:38:42.392Z,70.58
2023-02-23T15:41:22.309Z,70.41
2023-02-23T15:43:51.744Z,71.31
2023-02-23T15:46:26.915Z,71.71
2023-02-23T15:49:09.725Z,70.80
2023-02-23T15:51:46.759Z,70.61
2023-02-23T15:54:23.704Z,69.61
2023-02-23T15:56:57.429Z,68.64
2023-02-23T15:59:32.142Z,67.96
2023-02-23T16:02:03.809Z,68.63
2023-02-23T16:04:33.493Z,68.75
2023-02-23T16:07:16.726Z,69.60
2023-02-23T16:09:50.677Z,71.51
2023-02-23T16:12:21.977Z,70.84
2023-02-23T16:14:57.553Z,72.30
2023-02-23T16:17:48.110Z,71.92
2023-02-23T16:20:20.547Z,71.55
2023-02-23T16:22:57.254Z,71.41
2023-02-23T16:25:39.248Z,71.26
2023-02-23T16:28:13.512Z,71.11
2023-02-23T16:31:00.842Z,72.02
2023-02-23T16:37:01.284Z,72.28
2023-02-23T16:39:51.074Z,71.70
2023-02-23T16:46:12.015Z,71.45
2023-02-23T16:52:49.870Z,72.45
2023-02-23T16:58:21.716Z,73.36
2023-02-23T17:00:58.187Z,73.95
2023-02-23T17:03:36.011Z,73.56
2023-02-23T17:06:13.562Z,73.01
2023-02-23T17:11:43.899Z,72.33
2023-02-23T17:14:31.599Z,72.81
2023-02-23T17:17:03.667Z,72.24
2023-02-23T17:19:40.850Z,72.77
2023-02-23T17:22:09.617Z,73.25
2023-02-23T17:24:45.279Z,73.76
2023-02-23T17:27:12.991Z,74.01
2023-02-23T17:29:48.582Z,74.97
2023-02-23T17:32:20.541Z,74.76
2023-02-23T17:34:54.365Z,74.99
2023-02-23T17:40:13.392Z,75.10
2023-02-23T17:42:47.809Z,74.90
2023-02-23T17:45:21.249Z,74.82
2023-02-23T17:48:01.699Z,75.69
2023-02-23T17:50:33.468Z,75.26
2023-02-23T17:53:01.273Z,75.72
2023-02-23T17:55:58.366Z,75.38
2023-02-23T17:58:29.619Z,75.55
2023-02-23T18:01:00.632Z,75.91
2023-02-23T18:03:34.027Z,76.26
2023-02-23T18:06:14.040Z,76.59
2023-02-23T18:08:52.447Z,77.09
2023-02-23T18:11:37.492Z,77.24
2023-02-23T18:16:53.756Z,77.81
2023-02-23T18:19:24.458Z,78.27
2023-02-23T18:22:06.172Z,78.47
2023-02-23T18:24:42.470Z,78.60
2023-02-23T18:27:14.070Z,78.82
2023-02-23T18:29:44.065Z,78.27
2023-02-23T18:32:23.303Z,79.18
2023-02-23T18:34:59.488Z,79.47
2023-02-23T18:37:28.730Z,79.73
2023-02-23T18:40:02.529Z,80.01
2023-02-23T18:42:31.677Z,79.72
2023-02-23T18:44:59.824Z,80.37
2023-02-23T18:47:35.692Z,80.83
2023-02-23T18:50:06.065Z,80.82
2023-02-23T18:52:41.145Z,81.53
2023-02-23T18:55:11.698Z,81.02
2023-02-23T18:57:40.344Z,81.15
2023-02-23T19:00:13.554Z,79.28
2023-02-23T19:02:42.177Z,79.70
2023-02-23T19:05:15.889Z,79.78
2023-02-23T19:07:50.754Z,79.75
2023-02-23T19:10:23.492Z,79.99
2023-02-23T19:12:53.692Z,80.75
2023-02-23T19:15:21.632Z,80.49
2023-02-23T19:17:49.294Z,81.14
2023-02-23T19:20:26.169Z,79.75
2023-02-23T19:22:55.932Z,79.49
2023-02-23T19:25:26.129Z,80.05
2023-02-23T19:27:54.504Z,81.00
2023-02-23T19:30:22.352Z,81.80
2023-02-23T19:32:55.772Z,81.61
2023-02-23T19:35:24.425Z,79.96
2023-02-23T19:38:07.065Z,80.32
2023-02-23T19:40:36.948Z,79.52
2023-02-23T19:43:13.840Z,80.08
2023-02-23T19:45:48.558Z,79.56
2023-02-23T19:48:16.743Z,79.83
2023-02-23T19:50:49.394Z,80.44
2023-02-23T19:53:17.813Z,81.83
2023-02-23T19:55:49.704Z,80.88
2023-02-23T19:58:27.183Z,81.68
2023-02-23T20:03:46.552Z,80.98
2023-02-23T20:06:18.513Z,81.45
2023-02-23T20:08:57.097Z,81.46
2023-02-23T20:11:46.298Z,81.93
2023-02-23T20:14:14.769Z,81.70
2023-02-23T20:22:37.437Z,82.08
2023-02-23T20:25:09.606Z,82.32
2023-02-23T20:30:35.406Z,83.59
2023-02-23T20:33:31.050Z,83.88
2023-02-23T20:36:21.541Z,82.96
2023-02-23T20:38:53.532Z,80.22
2023-02-23T20:41:24.030Z,80.28
2023-02-23T20:44:31.362Z,82.64
2023-02-23T20:47:19.251Z,82.44
2023-02-23T20:49:47.981Z,81.21
2023-02-23T20:52:18.904Z,81.43
2023-02-23T20:54:47.687Z,81.90
2023-02-23T20:57:15.579Z,80.86
2023-02-23T20:59:44.813Z,83.24
2023-02-23T21:02:16.713Z,81.98
2023-02-23T21:04:45.103Z,82.35
2023-02-23T21:07:13.425Z,82.95
2023-02-23T21:09:46.429Z,82.29
2023-02-23T21:12:15.590Z,82.37
2023-02-23T21:14:58.942Z,82.49
2023-02-23T21:17:26.592Z,80.16
2023-02-23T21:19:54.218Z,80.59
2023-02-23T21:22:22.176Z,80.10
2023-02-23T21:24:49.790Z,80.56
2023-02-23T21:27:23.720Z,80.87
2023-02-23T21:29:55.129Z,80.10
2023-02-23T21:32:29.012Z,79.62
2023-02-23T21:35:04.871Z,79.60
2023-02-23T21:37:33.129Z,79.68
2023-02-23T21:40:00.954Z,79.49
2023-02-23T21:42:30.131Z,78.82
2023-02-23T21:44:57.923Z,77.56
2023-02-23T21:47:28.663Z,78.02
2023-02-23T21:49:56.281Z,78.59
2023-02-23T21:52:25.044Z,79.27
2023-02-23T21:54:52.764Z,78.98
2023-02-23T21:57:22.568Z,79.23
2023-02-23T21:59:52.613Z,78.60
2023-02-23T22:02:21.208Z,79.03
2023-02-23T22:04:51.680Z,78.80
2023-02-23T22:07:24.051Z,78.27
2023-02-23T22:09:53.016Z,79.19
2023-02-23T22:12:21.077Z,80.01
2023-02-23T22:14:48.729Z,79.73
2023-02-23T22:17:18.850Z,79.17
2023-02-23T22:19:46.964Z,79.67
2023-02-23T22:22:16.574Z,80.34
2023-02-23T22:24:44.238Z,82.18
2023-02-23T22:27:15.821Z,82.00
2023-02-23T22:29:43.850Z,82.44
2023-02-23T22:32:12.061Z,80.90
2023-02-23T22:34:42.804Z,80.47
2023-02-23T22:37:11.063Z,80.61
2023-02-23T22:39:44.971Z,80.77
2023-02-23T22:42:20.677Z,80.92
2023-02-23T22:44:56.478Z,80.19
2023-02-23T22:47:33.410Z,80.70
2023-02-23T22:50:01.246Z,81.13
2023-02-23T22:52:30.026Z,81.90
2023-02-23T22:55:00.169Z,81.24
2023-02-23T22:57:28.864Z,81.33
2023-02-23T23:00:00.886Z,81.93
2023-02-23T23:02:33.325Z,81.39
2023-02-23T23:05:01.789Z,82.05
2023-02-23T23:07:31.465Z,81.88
2023-02-23T23:10:06.134Z,81.49
2023-02-23T23:12:37.576Z,82.15
2023-02-23T23:15:14.663Z,81.68
2023-02-23T23:17:48.124Z,81.87
2023-02-23T23:20:19.215Z,81.46
2023-02-23T23:22:46.851Z,82.05
2023-02-23T23:25:15.922Z,82.10
2023-02-23T23:27:45.649Z,82.59
2023-02-23T23:30:14.527Z,83.09
2023-02-23T23:32:42.255Z,82.88
2023-02-23T23:35:13.334Z,82.57
2023-02-23T23:37:41.289Z,82.50
2023-02-23T23:40:14.488Z,82.82
2023-02-23T23:42:46.048Z,82.54
2023-02-23T23:45:16.180Z,83.31
2023-02-23T23:47:47.256Z,83.20
2023-02-23T23:50:16.517Z,83.39
2023-02-23T23:52:46.928Z,84.31
2023-02-23T23:55:16.177Z,85.21
2023-02-23T23:57:45.130Z,85.05
